sensor_id;sensor_type;location;lat;lon;timestamp;P1;durP1;ratioP1;P2;durP2;ratioP2
22711;SDS011;11523;50.390;8.072;2023-03-21T02:37:02;8.73;;;4.30;;
22711;SDS011;11523;50.390;8.072;2023-03-21T02:42:02;11.50;;;4.72;;
22711;SDS011;11523;50.390;8.072;2023-03-21T02:44:38;8.35;;;4.70;;
22711;SDS011;11523;50.390;8.072;2023-03-21T02:47:13;9.55;;;4.68;;
22711;SDS011;11523;50.390;8.072;2023-03-21T02:49:54;7.47;;;4.40;;
22711;SDS011;11523;50.390;8.072;2023-03-21T02:52:22;10.25;;;5.05;;
22711;SDS011;11523;50.390;8.072;2023-03-21T02:54:49;9.40;;;4.50;;
22711;SDS011;11523;50.390;8.072;2023-03-21T02:57:16;7.40;;;4.80;;
22711;SDS011;11523;50.390;8.072;2023-03-21T02:59:43;8.02;;;4.75;;
22711;SDS011;11523;50.390;8.072;2023-03-21T03:02:09;11.43;;;4.80;;
22711;SDS011;11523;50.390;8.072;2023-03-21T03:04:36;9.48;;;4.88;;
22711;SDS011;11523;50.390;8.072;2023-03-21T03:07:05;10.73;;;5.05;;
22711;SDS011;11523;50.390;8.072;2023-03-21T03:14:41;9.90;;;5.22;;
22711;SDS011;11523;50.390;8.072;2023-03-21T03:19:42;10.40;;;4.85;;
22711;SDS011;11523;50.390;8.072;2023-03-21T03:22:14;9.20;;;4.55;;
22711;SDS011;11523;50.390;8.072;2023-03-21T03:24:44;9.95;;;4.10;;
22711;SDS011;11523;50.390;8.072;2023-03-21T03:27:23;11.15;;;4.22;;
22711;SDS011;11523;50.390;8.072;2023-03-21T03:29:50;8.85;;;4.70;;
22711;SDS011;11523;50.390;8.072;2023-03-21T03:32:17;10.25;;;4.65;;
22711;SDS011;11523;50.390;8.072;2023-03-21T03:34:47;8.32;;;4.22;;
22711;SDS011;11523;50.390;8.072;2023-03-21T03:37:15;7.32;;;4.50;;
22711;SDS011;11523;50.390;8.072;2023-03-21T03:39:47;10.68;;;4.07;;
22711;SDS011;11523;50.390;8.072;2023-03-21T03:42:22;9.00;;;4.40;;
22711;SDS011;11523;50.390;8.072;2023-03-21T03:44:49;10.27;;;4.60;;
22711;SDS011;11523;50.390;8.072;2023-03-21T03:47:20;10.85;;;4.65;;
22711;SDS011;11523;50.390;8.072;2023-03-21T03:49:51;11.10;;;3.90;;
22711;SDS011;11523;50.390;8.072;2023-03-21T03:52:21;8.40;;;4.13;;
22711;SDS011;11523;50.390;8.072;2023-03-21T03:54:48;8.30;;;4.55;;
22711;SDS011;11523;50.390;8.072;2023-03-21T03:57:16;5.45;;;3.58;;
22711;SDS011;11523;50.390;8.072;2023-03-21T03:59:43;9.52;;;4.45;;
22711;SDS011;11523;50.390;8.072;2023-03-21T04:02:09;10.85;;;4.60;;
22711;SDS011;11523;50.390;8.072;2023-03-21T04:04:36;8.82;;;4.28;;
22711;SDS011;11523;50.390;8.072;2023-03-21T04:07:02;12.30;;;4.40;;
22711;SDS011;11523;50.390;8.072;2023-03-21T04:09:28;9.63;;;3.92;;
22711;SDS011;11523;50.390;8.072;2023-03-21T04:11:55;11.45;;;4.47;;
22711;SDS011;11523;50.390;8.072;2023-03-21T04:14:21;11.40;;;4.13;;
22711;SDS011;11523;50.390;8.072;2023-03-21T04:16:47;7.25;;;4.22;;
22711;SDS011;11523;50.390;8.072;2023-03-21T04:19:14;8.15;;;4.13;;
22711;SDS011;11523;50.390;8.072;2023-03-21T04:21:41;11.43;;;4.32;;
22711;SDS011;11523;50.390;8.072;2023-03-21T04:24:07;10.43;;;4.18;;
22711;SDS011;11523;50.390;8.072;2023-03-21T04:26:33;8.63;;;4.22;;
22711;SDS011;11523;50.390;8.072;2023-03-21T04:29:00;8.75;;;4.13;;
22711;SDS011;11523;50.390;8.072;2023-03-21T04:31:26;7.35;;;3.65;;
22711;SDS011;11523;50.390;8.072;2023-03-21T04:33:52;9.13;;;4.25;;
22711;SDS011;11523;50.390;8.072;2023-03-21T04:36:19;6.93;;;4.38;;
22711;SDS011;11523;50.390;8.072;2023-03-21T04:38:51;8.70;;;4.22;;
22711;SDS011;11523;50.390;8.072;2023-03-21T04:41:17;7.75;;;4.03;;
22711;SDS011;11523;50.390;8.072;2023-03-21T04:43:43;11.98;;;4.13;;
22711;SDS011;11523;50.390;8.072;2023-03-21T04:46:09;8.98;;;3.78;;
22711;SDS011;11523;50.390;8.072;2023-03-21T04:48:35;8.27;;;4.10;;
22711;SDS011;11523;50.390;8.072;2023-03-21T04:51:01;7.72;;;3.92;;
22711;SDS011;11523;50.390;8.072;2023-03-21T04:53:28;8.88;;;3.95;;
22711;SDS011;11523;50.390;8.072;2023-03-21T04:55:53;8.23;;;4.05;;
22711;SDS011;11523;50.390;8.072;2023-03-21T04:58:21;9.63;;;4.07;;
22711;SDS011;11523;50.390;8.072;2023-03-21T05:00:48;12.65;;;4.75;;
22711;SDS011;11523;50.390;8.072;2023-03-21T05:03:16;8.10;;;4.10;;
22711;SDS011;11523;50.390;8.072;2023-03-21T05:05:45;9.15;;;4.38;;
22711;SDS011;11523;50.390;8.072;2023-03-21T05:08:12;8.25;;;4.57;;
22711;SDS011;11523;50.390;8.072;2023-03-21T05:10:38;8.05;;;4.68;;
22711;SDS011;11523;50.390;8.072;2023-03-21T05:13:04;9.82;;;5.00;;
22711;SDS011;11523;50.390;8.072;2023-03-21T05:15:30;9.30;;;4.90;;
22711;SDS011;11523;50.390;8.072;2023-03-21T05:17:56;10.10;;;5.47;;
22711;SDS011;11523;50.390;8.072;2023-03-21T05:20:34;11.07;;;5.10;;
22711;SDS011;11523;50.390;8.072;2023-03-21T05:23:00;10.80;;;6.15;;
22711;SDS011;11523;50.390;8.072;2023-03-21T05:25:26;12.32;;;5.63;;
22711;SDS011;11523;50.390;8.072;2023-03-21T05:27:59;11.95;;;5.53;;
22711;SDS011;11523;50.390;8.072;2023-03-21T05:30:26;10.68;;;5.63;;
22711;SDS011;11523;50.390;8.072;2023-03-21T05:32:52;13.35;;;5.60;;
22711;SDS011;11523;50.390;8.072;2023-03-21T05:35:18;10.70;;;5.72;;
22711;SDS011;11523;50.390;8.072;2023-03-21T05:37:44;13.93;;;5.93;;
22711;SDS011;11523;50.390;8.072;2023-03-21T05:40:10;12.23;;;6.15;;
22711;SDS011;11523;50.390;8.072;2023-03-21T05:42:36;10.45;;;5.15;;
22711;SDS011;11523;50.390;8.072;2023-03-21T05:45:02;9.63;;;5.28;;
22711;SDS011;11523;50.390;8.072;2023-03-21T05:47:29;11.15;;;5.25;;
22711;SDS011;11523;50.390;8.072;2023-03-21T05:49:55;10.00;;;5.15;;
22711;SDS011;11523;50.390;8.072;2023-03-21T05:52:21;10.90;;;5.20;;
22711;SDS011;11523;50.390;8.072;2023-03-21T05:54:47;11.95;;;6.13;;
22711;SDS011;11523;50.390;8.072;2023-03-21T05:57:13;8.50;;;5.20;;
22711;SDS011;11523;50.390;8.072;2023-03-21T05:59:39;11.07;;;5.78;;
22711;SDS011;11523;50.390;8.072;2023-03-21T06:02:05;11.13;;;5.45;;
22711;SDS011;11523;50.390;8.072;2023-03-21T06:04:31;11.10;;;5.38;;
22711;SDS011;11523;50.390;8.072;2023-03-21T06:06:57;11.38;;;4.95;;
22711;SDS011;11523;50.390;8.072;2023-03-21T06:09:23;7.57;;;4.43;;
22711;SDS011;11523;50.390;8.072;2023-03-21T06:11:50;10.27;;;4.63;;
22711;SDS011;11523;50.390;8.072;2023-03-21T06:14:17;8.18;;;4.80;;
22711;SDS011;11523;50.390;8.072;2023-03-21T06:16:43;8.77;;;4.32;;
22711;SDS011;11523;50.390;8.072;2023-03-21T06:19:09;6.43;;;4.35;;
22711;SDS011;11523;50.390;8.072;2023-03-21T06:21:35;9.20;;;4.35;;
22711;SDS011;11523;50.390;8.072;2023-03-21T06:24:01;8.93;;;4.30;;
22711;SDS011;11523;50.390;8.072;2023-03-21T06:26:27;13.73;;;4.93;;
22711;SDS011;11523;50.390;8.072;2023-03-21T06:28:53;8.10;;;4.38;;
22711;SDS011;11523;50.390;8.072;2023-03-21T06:31:19;11.95;;;4.68;;
22711;SDS011;11523;50.390;8.072;2023-03-21T06:33:46;13.95;;;4.70;;
22711;SDS011;11523;50.390;8.072;2023-03-21T06:36:13;11.05;;;4.05;;
22711;SDS011;11523;50.390;8.072;2023-03-21T06:38:39;9.73;;;4.45;;
22711;SDS011;11523;50.390;8.072;2023-03-21T06:41:05;9.95;;;4.80;;
22711;SDS011;11523;50.390;8.072;2023-03-21T06:43:31;11.25;;;4.57;;
22711;SDS011;11523;50.390;8.072;2023-03-21T06:45:57;7.80;;;4.80;;
22711;SDS011;11523;50.390;8.072;2023-03-21T06:48:23;9.35;;;5.00;;
22711;SDS011;11523;50.390;8.072;2023-03-21T06:50:50;9.93;;;4.88;;
22711;SDS011;11523;50.390;8.072;2023-03-21T06:53:16;11.88;;;5.68;;
22711;SDS011;11523;50.390;8.072;2023-03-21T06:55:47;11.70;;;5.03;;
22711;SDS011;11523;50.390;8.072;2023-03-21T06:58:13;10.02;;;4.68;;
22711;SDS011;11523;50.390;8.072;2023-03-21T07:00:39;10.20;;;4.95;;
22711;SDS011;11523;50.390;8.072;2023-03-21T07:03:05;8.63;;;4.85;;
22711;SDS011;11523;50.390;8.072;2023-03-21T07:05:33;12.68;;;5.63;;
22711;SDS011;11523;50.390;8.072;2023-03-21T07:07:59;8.02;;;4.55;;
22711;SDS011;11523;50.390;8.072;2023-03-21T07:10:32;8.70;;;4.75;;
22711;SDS011;11523;50.390;8.072;2023-03-21T07:12:58;13.98;;;5.50;;
22711;SDS011;11523;50.390;8.072;2023-03-21T07:15:24;11.88;;;4.85;;
22711;SDS011;11523;50.390;8.072;2023-03-21T07:17:51;8.85;;;4.47;;
22711;SDS011;11523;50.390;8.072;2023-03-21T07:20:17;14.32;;;5.05;;
22711;SDS011;11523;50.390;8.072;2023-03-21T07:22:43;11.25;;;5.38;;
22711;SDS011;11523;50.390;8.072;2023-03-21T07:25:09;11.63;;;5.03;;
22711;SDS011;11523;50.390;8.072;2023-03-21T07:27:35;10.20;;;5.13;;
22711;SDS011;11523;50.390;8.072;2023-03-21T07:30:02;6.90;;;4.28;;
22711;SDS011;11523;50.390;8.072;2023-03-21T07:32:31;15.88;;;5.97;;
22711;SDS011;11523;50.390;8.072;2023-03-21T07:34:57;14.27;;;6.07;;
22711;SDS011;11523;50.390;8.072;2023-03-21T07:37:23;10.82;;;5.18;;
22711;SDS011;11523;50.390;8.072;2023-03-21T07:39:50;9.88;;;5.03;;
22711;SDS011;11523;50.390;8.072;2023-03-21T07:42:16;9.18;;;5.03;;
22711;SDS011;11523;50.390;8.072;2023-03-21T07:44:42;8.32;;;4.78;;
22711;SDS011;11523;50.390;8.072;2023-03-21T07:47:08;10.43;;;5.28;;
22711;SDS011;11523;50.390;8.072;2023-03-21T07:49:34;11.40;;;5.75;;
22711;SDS011;11523;50.390;8.072;2023-03-21T07:52:01;12.00;;;5.63;;
22711;SDS011;11523;50.390;8.072;2023-03-21T07:54:27;14.15;;;5.95;;
22711;SDS011;11523;50.390;8.072;2023-03-21T07:56:53;12.38;;;5.60;;
22711;SDS011;11523;50.390;8.072;2023-03-21T07:59:19;16.35;;;6.28;;
22711;SDS011;11523;50.390;8.072;2023-03-21T08:01:45;10.65;;;6.05;;
22711;SDS011;11523;50.390;8.072;2023-03-21T08:04:11;12.75;;;5.43;;
22711;SDS011;11523;50.390;8.072;2023-03-21T08:06:37;10.43;;;5.30;;
22711;SDS011;11523;50.390;8.072;2023-03-21T08:09:03;15.82;;;6.68;;
22711;SDS011;11523;50.390;8.072;2023-03-21T08:11:29;11.55;;;6.47;;
22711;SDS011;11523;50.390;8.072;2023-03-21T08:14:02;18.75;;;6.43;;
22711;SDS011;11523;50.390;8.072;2023-03-21T08:16:28;14.95;;;6.55;;
22711;SDS011;11523;50.390;8.072;2023-03-21T08:18:54;15.55;;;7.22;;
22711;SDS011;11523;50.390;8.072;2023-03-21T08:21:20;14.02;;;5.78;;
22711;SDS011;11523;50.390;8.072;2023-03-21T08:23:46;14.82;;;6.97;;
22711;SDS011;11523;50.390;8.072;2023-03-21T08:26:12;16.73;;;6.78;;
22711;SDS011;11523;50.390;8.072;2023-03-21T08:28:42;18.02;;;7.80;;
22711;SDS011;11523;50.390;8.072;2023-03-21T08:31:08;14.70;;;7.75;;
22711;SDS011;11523;50.390;8.072;2023-03-21T08:33:35;17.85;;;7.43;;
22711;SDS011;11523;50.390;8.072;2023-03-21T08:36:01;13.90;;;7.60;;
22711;SDS011;11523;50.390;8.072;2023-03-21T08:38:27;14.57;;;6.93;;
22711;SDS011;11523;50.390;8.072;2023-03-21T08:40:54;16.67;;;7.32;;
22711;SDS011;11523;50.390;8.072;2023-03-21T08:43:20;16.90;;;7.80;;
22711;SDS011;11523;50.390;8.072;2023-03-21T08:45:46;21.67;;;8.35;;
22711;SDS011;11523;50.390;8.072;2023-03-21T08:48:12;14.82;;;6.43;;
22711;SDS011;11523;50.390;8.072;2023-03-21T08:50:38;17.10;;;7.75;;
22711;SDS011;11523;50.390;8.072;2023-03-21T08:53:04;16.85;;;7.00;;
22711;SDS011;11523;50.390;8.072;2023-03-21T08:55:30;16.70;;;7.20;;
22711;SDS011;11523;50.390;8.072;2023-03-21T08:57:57;20.65;;;8.07;;
22711;SDS011;11523;50.390;8.072;2023-03-21T09:00:23;13.07;;;7.05;;
22711;SDS011;11523;50.390;8.072;2023-03-21T09:02:49;17.88;;;7.32;;
22711;SDS011;11523;50.390;8.072;2023-03-21T09:05:16;13.32;;;6.68;;
22711;SDS011;11523;50.390;8.072;2023-03-21T09:07:42;12.38;;;7.28;;
22711;SDS011;11523;50.390;8.072;2023-03-21T09:10:10;12.70;;;7.18;;
22711;SDS011;11523;50.390;8.072;2023-03-21T09:12:36;11.15;;;6.78;;
22711;SDS011;11523;50.390;8.072;2023-03-21T09:15:03;14.32;;;6.90;;
22711;SDS011;11523;50.390;8.072;2023-03-21T09:17:29;12.95;;;7.00;;
22711;SDS011;11523;50.390;8.072;2023-03-21T09:19:56;11.13;;;6.90;;
22711;SDS011;11523;50.390;8.072;2023-03-21T09:22:24;21.23;;;7.03;;
22711;SDS011;11523;50.390;8.072;2023-03-21T09:24:51;14.65;;;6.78;;
22711;SDS011;11523;50.390;8.072;2023-03-21T09:27:17;10.57;;;6.82;;
22711;SDS011;11523;50.390;8.072;2023-03-21T09:29:46;14.55;;;7.40;;
22711;SDS011;11523;50.390;8.072;2023-03-21T09:32:12;13.68;;;6.63;;
22711;SDS011;11523;50.390;8.072;2023-03-21T09:34:39;14.38;;;6.60;;
22711;SDS011;11523;50.390;8.072;2023-03-21T09:37:06;14.75;;;7.68;;
22711;SDS011;11523;50.390;8.072;2023-03-21T09:39:37;14.05;;;7.07;;
22711;SDS011;11523;50.390;8.072;2023-03-21T09:45:02;11.13;;;6.20;;
22711;SDS011;11523;50.390;8.072;2023-03-21T09:47:35;11.15;;;6.15;;
22711;SDS011;11523;50.390;8.072;2023-03-21T09:55:14;13.88;;;6.57;;
22711;SDS011;11523;50.390;8.072;2023-03-21T09:57:44;20.83;;;7.13;;
22711;SDS011;11523;50.390;8.072;2023-03-21T10:00:14;14.60;;;6.97;;
22711;SDS011;11523;50.390;8.072;2023-03-21T10:02:45;18.23;;;8.27;;
22711;SDS011;11523;50.390;8.072;2023-03-21T10:05:23;14.25;;;6.90;;
22711;SDS011;11523;50.390;8.072;2023-03-21T10:07:52;14.48;;;7.53;;
22711;SDS011;11523;50.390;8.072;2023-03-21T10:10:21;13.23;;;6.78;;
22711;SDS011;11523;50.390;8.072;2023-03-21T10:12:50;18.67;;;7.00;;
22711;SDS011;11523;50.390;8.072;2023-03-21T10:15:19;17.73;;;8.50;;
22711;SDS011;11523;50.390;8.072;2023-03-21T10:17:51;14.98;;;7.00;;
22711;SDS011;11523;50.390;8.072;2023-03-21T10:20:25;13.70;;;6.72;;
22711;SDS011;11523;50.390;8.072;2023-03-21T10:22:52;14.10;;;7.55;;
22711;SDS011;11523;50.390;8.072;2023-03-21T10:25:19;13.45;;;7.53;;
22711;SDS011;11523;50.390;8.072;2023-03-21T10:27:46;13.40;;;7.03;;
22711;SDS011;11523;50.390;8.072;2023-03-21T10:30:18;12.65;;;7.22;;
22711;SDS011;11523;50.390;8.072;2023-03-21T10:32:45;15.25;;;8.05;;
22711;SDS011;11523;50.390;8.072;2023-03-21T10:35:12;17.10;;;7.70;;
22711;SDS011;11523;50.390;8.072;2023-03-21T10:37:38;10.70;;;6.60;;
22711;SDS011;11523;50.390;8.072;2023-03-21T10:40:04;18.20;;;6.93;;
22711;SDS011;11523;50.390;8.072;2023-03-21T10:42:33;14.88;;;6.97;;
22711;SDS011;11523;50.390;8.072;2023-03-21T10:45:00;17.17;;;7.03;;
22711;SDS011;11523;50.390;8.072;2023-03-21T10:47:29;16.70;;;7.15;;
22711;SDS011;11523;50.390;8.072;2023-03-21T10:49:56;11.73;;;6.85;;
22711;SDS011;11523;50.390;8.072;2023-03-21T10:52:26;12.90;;;6.53;;
22711;SDS011;11523;50.390;8.072;2023-03-21T10:55:03;13.90;;;7.03;;
22711;SDS011;11523;50.390;8.072;2023-03-21T10:57:29;12.95;;;6.20;;
22711;SDS011;11523;50.390;8.072;2023-03-21T10:59:56;14.35;;;6.88;;
22711;SDS011;11523;50.390;8.072;2023-03-21T11:02:32;16.02;;;6.30;;
22711;SDS011;11523;50.390;8.072;2023-03-21T11:05:02;12.18;;;6.38;;
22711;SDS011;11523;50.390;8.072;2023-03-21T11:07:29;11.25;;;6.47;;
22711;SDS011;11523;50.390;8.072;2023-03-21T11:09:57;11.25;;;6.93;;
22711;SDS011;11523;50.390;8.072;2023-03-21T11:12:28;13.38;;;6.80;;
22711;SDS011;11523;50.390;8.072;2023-03-21T11:14:54;13.88;;;5.88;;
22711;SDS011;11523;50.390;8.072;2023-03-21T11:17:28;14.95;;;6.82;;
22711;SDS011;11523;50.390;8.072;2023-03-21T11:20:00;13.43;;;6.35;;
22711;SDS011;11523;50.390;8.072;2023-03-21T11:22:29;13.32;;;5.78;;
22711;SDS011;11523;50.390;8.072;2023-03-21T11:24:57;12.20;;;6.40;;
22711;SDS011;11523;50.390;8.072;2023-03-21T11:27:24;14.13;;;6.63;;
22711;SDS011;11523;50.390;8.072;2023-03-21T11:29:53;13.95;;;6.88;;
22711;SDS011;11523;50.390;8.072;2023-03-21T11:34:59;13.45;;;6.55;;
22711;SDS011;11523;50.390;8.072;2023-03-21T11:37:33;11.90;;;6.13;;
22711;SDS011;11523;50.390;8.072;2023-03-21T11:40:07;11.00;;;6.00;;
22711;SDS011;11523;50.390;8.072;2023-03-21T11:42:39;10.95;;;6.32;;
22711;SDS011;11523;50.390;8.072;2023-03-21T11:45:13;11.00;;;5.78;;
22711;SDS011;11523;50.390;8.072;2023-03-21T11:47:39;10.60;;;5.82;;
22711;SDS011;11523;50.390;8.072;2023-03-21T11:50:19;11.60;;;5.93;;
22711;SDS011;11523;50.390;8.072;2023-03-21T11:52:49;7.70;;;4.82;;
22711;SDS011;11523;50.390;8.072;2023-03-21T11:55:22;9.13;;;4.93;;
22711;SDS011;11523;50.390;8.072;2023-03-21T11:57:54;9.30;;;4.30;;
22711;SDS011;11523;50.390;8.072;2023-03-21T12:00:24;11.13;;;5.00;;
22711;SDS011;11523;50.390;8.072;2023-03-21T12:05:22;10.00;;;4.40;;
22711;SDS011;11523;50.390;8.072;2023-03-21T12:08:01;7.05;;;3.92;;
22711;SDS011;11523;50.390;8.072;2023-03-21T12:15:41;9.27;;;4.43;;
22711;SDS011;11523;50.390;8.072;2023-03-21T12:23:28;10.45;;;4.75;;
22711;SDS011;11523;50.390;8.072;2023-03-21T12:26:18;7.82;;;4.30;;
22711;SDS011;11523;50.390;8.072;2023-03-21T12:31:18;8.43;;;4.50;;
22711;SDS011;11523;50.390;8.072;2023-03-21T12:36:21;11.73;;;4.95;;
22711;SDS011;11523;50.390;8.072;2023-03-21T12:39:37;9.93;;;4.95;;
22711;SDS011;11523;50.390;8.072;2023-03-21T12:44:16;13.40;;;5.03;;
22711;SDS011;11523;50.390;8.072;2023-03-21T12:51:39;8.05;;;4.63;;
22711;SDS011;11523;50.390;8.072;2023-03-21T12:54:28;9.45;;;4.95;;
22711;SDS011;11523;50.390;8.072;2023-03-21T12:59:24;9.05;;;4.47;;
22711;SDS011;11523;50.390;8.072;2023-03-21T13:01:53;8.57;;;4.22;;
22711;SDS011;11523;50.390;8.072;2023-03-21T13:09:33;7.30;;;4.03;;
22711;SDS011;11523;50.390;8.072;2023-03-21T13:12:02;6.07;;;4.00;;
22711;SDS011;11523;50.390;8.072;2023-03-21T13:14:33;6.80;;;4.07;;
22711;SDS011;11523;50.390;8.072;2023-03-21T13:17:02;10.27;;;4.00;;
22711;SDS011;11523;50.390;8.072;2023-03-21T13:19:35;6.93;;;4.18;;
22711;SDS011;11523;50.390;8.072;2023-03-21T13:22:14;11.35;;;4.57;;
22711;SDS011;11523;50.390;8.072;2023-03-21T13:24:49;9.35;;;3.97;;
22711;SDS011;11523;50.390;8.072;2023-03-21T13:27:18;8.35;;;4.25;;
22711;SDS011;11523;50.390;8.072;2023-03-21T13:32:37;9.75;;;4.88;;
22711;SDS011;11523;50.390;8.072;2023-03-21T13:35:22;7.97;;;4.60;;
22711;SDS011;11523;50.390;8.072;2023-03-21T13:37:57;8.48;;;4.30;;
22711;SDS011;11523;50.390;8.072;2023-03-21T13:40:24;6.43;;;4.57;;
22711;SDS011;11523;50.390;8.072;2023-03-21T13:42:52;10.25;;;4.78;;
22711;SDS011;11523;50.390;8.072;2023-03-21T13:45:24;10.73;;;4.57;;
22711;SDS011;11523;50.390;8.072;2023-03-21T13:47:59;9.65;;;4.97;;
22711;SDS011;11523;50.390;8.072;2023-03-21T13:50:29;6.73;;;4.20;;
22711;SDS011;11523;50.390;8.072;2023-03-21T13:55:30;7.32;;;4.47;;
22711;SDS011;11523;50.390;8.072;2023-03-21T13:58:00;7.57;;;3.87;;
22711;SDS011;11523;50.390;8.072;2023-03-21T14:00:59;10.73;;;4.32;;
22711;SDS011;11523;50.390;8.072;2023-03-21T14:03:30;7.40;;;4.65;;
22711;SDS011;11523;50.390;8.072;2023-03-21T14:05:58;8.88;;;4.85;;
22711;SDS011;11523;50.390;8.072;2023-03-21T14:08:25;9.30;;;4.80;;
22711;SDS011;11523;50.390;8.072;2023-03-21T14:10:59;6.22;;;3.42;;
22711;SDS011;11523;50.390;8.072;2023-03-21T14:13:26;10.35;;;4.97;;
22711;SDS011;11523;50.390;8.072;2023-03-21T14:15:53;6.35;;;4.85;;
22711;SDS011;11523;50.390;8.072;2023-03-21T14:18:20;7.25;;;5.10;;
22711;SDS011;11523;50.390;8.072;2023-03-21T14:20:51;8.32;;;4.47;;
22711;SDS011;11523;50.390;8.072;2023-03-21T14:23:17;6.63;;;4.50;;
22711;SDS011;11523;50.390;8.072;2023-03-21T14:25:44;8.18;;;5.13;;
22711;SDS011;11523;50.390;8.072;2023-03-21T14:28:20;8.98;;;5.00;;
22711;SDS011;11523;50.390;8.072;2023-03-21T14:30:55;8.60;;;4.55;;
22711;SDS011;11523;50.390;8.072;2023-03-21T14:35:51;10.15;;;5.22;;
22711;SDS011;11523;50.390;8.072;2023-03-21T14:38:24;11.35;;;5.47;;
22711;SDS011;11523;50.390;8.072;2023-03-21T14:40:52;10.27;;;5.68;;
22711;SDS011;11523;50.390;8.072;2023-03-21T14:43:19;12.00;;;5.97;;
22711;SDS011;11523;50.390;8.072;2023-03-21T14:45:50;12.02;;;5.88;;
22711;SDS011;11523;50.390;8.072;2023-03-21T14:48:19;13.80;;;6.05;;
22711;SDS011;11523;50.390;8.072;2023-03-21T14:50:52;10.02;;;5.72;;
22711;SDS011;11523;50.390;8.072;2023-03-21T14:53:32;8.25;;;5.50;;
22711;SDS011;11523;50.390;8.072;2023-03-21T14:56:02;7.50;;;5.85;;
22711;SDS011;11523;50.390;8.072;2023-03-21T14:58:31;9.30;;;6.32;;
22711;SDS011;11523;50.390;8.072;2023-03-21T15:01:00;9.65;;;6.30;;
22711;SDS011;11523;50.390;8.072;2023-03-21T15:03:28;9.35;;;6.07;;
22711;SDS011;11523;50.390;8.072;2023-03-21T15:05:55;11.15;;;6.20;;
22711;SDS011;11523;50.390;8.072;2023-03-21T15:08:22;9.07;;;5.88;;
22711;SDS011;11523;50.390;8.072;2023-03-21T15:10:55;8.15;;;6.03;;
22711;SDS011;11523;50.390;8.072;2023-03-21T15:13:22;7.43;;;6.28;;
22711;SDS011;11523;50.390;8.072;2023-03-21T15:15:50;7.68;;;5.32;;
22711;SDS011;11523;50.390;8.072;2023-03-21T15:18:19;10.27;;;5.65;;
22711;SDS011;11523;50.390;8.072;2023-03-21T15:20:49;10.95;;;5.90;;
22711;SDS011;11523;50.390;8.072;2023-03-21T15:23:20;6.80;;;5.30;;
22711;SDS011;11523;50.390;8.072;2023-03-21T15:25:50;7.72;;;5.75;;
22711;SDS011;11523;50.390;8.072;2023-03-21T15:28:17;8.32;;;6.07;;
22711;SDS011;11523;50.390;8.072;2023-03-21T15:30:47;6.63;;;5.82;;
22711;SDS011;11523;50.390;8.072;2023-03-21T15:33:22;8.65;;;5.93;;
22711;SDS011;11523;50.390;8.072;2023-03-21T15:35:49;7.20;;;6.00;;
22711;SDS011;11523;50.390;8.072;2023-03-21T15:38:21;6.28;;;5.68;;
22711;SDS011;11523;50.390;8.072;2023-03-21T15:40:48;10.35;;;6.15;;
22711;SDS011;11523;50.390;8.072;2023-03-21T15:43:14;8.35;;;5.72;;
22711;SDS011;11523;50.390;8.072;2023-03-21T15:45:45;6.47;;;5.32;;
22711;SDS011;11523;50.390;8.072;2023-03-21T15:48:12;6.82;;;5.72;;
22711;SDS011;11523;50.390;8.072;2023-03-21T15:50:40;7.88;;;5.78;;
22711;SDS011;11523;50.390;8.072;2023-03-21T15:53:13;8.68;;;5.82;;
22711;SDS011;11523;50.390;8.072;2023-03-21T15:55:55;8.07;;;5.43;;
22711;SDS011;11523;50.390;8.072;2023-03-21T15:58:22;9.32;;;5.63;;
22711;SDS011;11523;50.390;8.072;2023-03-21T16:00:50;9.27;;;6.45;;
22711;SDS011;11523;50.390;8.072;2023-03-21T16:03:19;9.02;;;5.53;;
22711;SDS011;11523;50.390;8.072;2023-03-21T16:06:02;7.20;;;5.60;;
22711;SDS011;11523;50.390;8.072;2023-03-21T16:08:31;7.30;;;5.30;;
22711;SDS011;11523;50.390;8.072;2023-03-21T16:11:04;8.35;;;6.13;;
22711;SDS011;11523;50.390;8.072;2023-03-21T16:13:31;6.45;;;5.75;;
22711;SDS011;11523;50.390;8.072;2023-03-21T16:15:57;7.28;;;5.60;;
22711;SDS011;11523;50.390;8.072;2023-03-21T16:18:22;7.65;;;6.15;;
22711;SDS011;11523;50.390;8.072;2023-03-21T16:20:48;8.00;;;5.50;;
22711;SDS011;11523;50.390;8.072;2023-03-21T16:23:14;8.73;;;6.22;;
22711;SDS011;11523;50.390;8.072;2023-03-21T16:25:43;7.65;;;6.47;;
22711;SDS011;11523;50.390;8.072;2023-03-21T16:28:11;8.30;;;6.03;;
22711;SDS011;11523;50.390;8.072;2023-03-21T16:30:38;9.27;;;6.35;;
22711;SDS011;11523;50.390;8.072;2023-03-21T16:33:04;9.18;;;6.53;;
22711;SDS011;11523;50.390;8.072;2023-03-21T16:35:30;8.93;;;6.25;;
22711;SDS011;11523;50.390;8.072;2023-03-21T16:37:56;10.38;;;6.35;;
22711;SDS011;11523;50.390;8.072;2023-03-21T16:40:29;8.80;;;6.43;;
22711;SDS011;11523;50.390;8.072;2023-03-21T16:42:56;8.43;;;6.32;;
22711;SDS011;11523;50.390;8.072;2023-03-21T16:45:22;9.32;;;6.43;;
22711;SDS011;11523;50.390;8.072;2023-03-21T16:47:48;6.82;;;5.90;;
22711;SDS011;11523;50.390;8.072;2023-03-21T16:52:40;8.35;;;5.80;;
22711;SDS011;11523;50.390;8.072;2023-03-21T16:55:06;7.28;;;5.72;;
22711;SDS011;11523;50.390;8.072;2023-03-21T16:57:32;8.13;;;6.28;;
22711;SDS011;11523;50.390;8.072;2023-03-21T16:59:58;8.15;;;6.15;;
22711;SDS011;11523;50.390;8.072;2023-03-21T17:02:24;8.43;;;7.00;;
22711;SDS011;11523;50.390;8.072;2023-03-21T17:04:51;9.13;;;6.70;;
22711;SDS011;11523;50.390;8.072;2023-03-21T17:07:16;8.55;;;7.03;;
22711;SDS011;11523;50.390;8.072;2023-03-21T17:09:43;10.50;;;6.47;;
22711;SDS011;11523;50.390;8.072;2023-03-21T17:12:10;9.50;;;6.72;;
22711;SDS011;11523;50.390;8.072;2023-03-21T17:14:38;8.88;;;6.72;;
22711;SDS011;11523;50.390;8.072;2023-03-21T17:17:04;11.32;;;7.40;;
22711;SDS011;11523;50.390;8.072;2023-03-21T17:19:30;11.90;;;7.07;;
22711;SDS011;11523;50.390;8.072;2023-03-21T17:21:56;8.75;;;7.03;;
22711;SDS011;11523;50.390;8.072;2023-03-21T17:24:22;8.82;;;7.43;;
22711;SDS011;11523;50.390;8.072;2023-03-21T17:26:50;11.43;;;7.68;;
22711;SDS011;11523;50.390;8.072;2023-03-21T17:29:16;11.48;;;7.40;;
22711;SDS011;11523;50.390;8.072;2023-03-21T17:31:42;11.55;;;7.63;;
22711;SDS011;11523;50.390;8.072;2023-03-21T17:34:11;11.02;;;7.30;;
22711;SDS011;11523;50.390;8.072;2023-03-21T17:36:38;10.07;;;6.95;;
22711;SDS011;11523;50.390;8.072;2023-03-21T17:39:05;11.57;;;7.80;;
22711;SDS011;11523;50.390;8.072;2023-03-21T17:41:32;9.27;;;7.82;;
22711;SDS011;11523;50.390;8.072;2023-03-21T17:43:58;11.57;;;8.68;;
22711;SDS011;11523;50.390;8.072;2023-03-21T17:46:25;12.13;;;9.15;;
22711;SDS011;11523;50.390;8.072;2023-03-21T17:48:52;10.52;;;8.60;;
22711;SDS011;11523;50.390;8.072;2023-03-21T17:51:18;10.73;;;9.23;;
22711;SDS011;11523;50.390;8.072;2023-03-21T17:53:47;14.45;;;9.27;;
22711;SDS011;11523;50.390;8.072;2023-03-21T17:56:15;17.35;;;10.23;;
22711;SDS011;11523;50.390;8.072;2023-03-21T17:58:42;14.57;;;11.27;;
22711;SDS011;11523;50.390;8.072;2023-03-21T18:01:08;16.38;;;11.13;;
22711;SDS011;11523;50.390;8.072;2023-03-21T18:03:34;18.05;;;11.15;;
22711;SDS011;11523;50.390;8.072;2023-03-21T18:06:00;17.80;;;12.13;;
22711;SDS011;11523;50.390;8.072;2023-03-21T18:08:27;15.45;;;11.35;;
22711;SDS011;11523;50.390;8.072;2023-03-21T18:10:53;15.65;;;11.02;;
22711;SDS011;11523;50.390;8.072;2023-03-21T18:13:19;17.42;;;12.25;;
22711;SDS011;11523;50.390;8.072;2023-03-21T18:15:45;15.00;;;11.73;;
22711;SDS011;11523;50.390;8.072;2023-03-21T18:18:12;18.42;;;10.88;;
22711;SDS011;11523;50.390;8.072;2023-03-21T18:20:38;15.25;;;11.02;;
22711;SDS011;11523;50.390;8.072;2023-03-21T18:23:04;14.63;;;11.68;;
22711;SDS011;11523;50.390;8.072;2023-03-21T18:25:30;14.82;;;11.68;;
22711;SDS011;11523;50.390;8.072;2023-03-21T18:27:56;17.58;;;11.55;;